McCurtain, Oklahoma
Current Conditions -  °F | °C
As of 12:55 AM on Thursday 18 Dec 2014 (Local Time) from KGZL Reporting Station
Overcast Overcast  
Wind Chill: -2°   Ceiling: 1600
Heat Index:   Visibility: 10mi
Dew Point:   Wind: 8mph
Humidity: 87%   Direction: 100°E
Pressure: 30.18"   Gusts: NA
Location:  35.15°N, 94.97°W
Report Text: KGZL 180655Z AUTO 10007KT 10SM OVC016 02/00 A3018 RMK AO2
Loading
Personal Weather Stations






























Interactive Weather Map New forecast layout! Learn more

10-Day Weather Forecast

Advertisements
Track Severe Weather on mobile